createdAt,value
2022-10-28T00:01:20.217Z,5.30
2022-10-28T00:03:53.621Z,4.78
2022-10-28T00:06:30.147Z,4.72
2022-10-28T00:08:58.371Z,4.00
2022-10-28T00:11:31.615Z,6.22
2022-10-28T00:14:01.716Z,4.20
2022-10-28T00:16:33.824Z,4.40
2022-10-28T00:19:03.764Z,4.90
2022-10-28T00:21:33.776Z,5.05
2022-10-28T00:24:01.479Z,3.85
2022-10-28T00:26:31.560Z,5.45
2022-10-28T00:29:01.615Z,4.68
2022-10-28T00:31:30.687Z,4.22
2022-10-28T00:34:02.471Z,4.63
2022-10-28T00:36:33.464Z,4.85
2022-10-28T00:39:02.137Z,5.78
2022-10-28T00:41:35.536Z,5.13
2022-10-28T00:44:38.471Z,3.85
2022-10-28T00:47:14.975Z,4.25
2022-10-28T00:49:45.827Z,5.78
2022-10-28T00:52:19.200Z,5.97
2022-10-28T00:54:47.418Z,5.35
2022-10-28T00:57:22.060Z,4.07
2022-10-28T00:59:52.804Z,5.05
2022-10-28T01:02:21.147Z,4.40
2022-10-28T01:04:48.899Z,4.65
2022-10-28T01:07:17.564Z,6.32
2022-10-28T01:09:45.666Z,5.20
2022-10-28T01:12:51.313Z,5.80
2022-10-28T01:15:33.619Z,6.32
2022-10-28T01:18:28.178Z,5.18
2022-10-28T01:21:14.228Z,4.00
2022-10-28T01:23:53.751Z,4.75
2022-10-28T01:26:44.426Z,4.88
2022-10-28T01:29:35.673Z,5.63
2022-10-28T01:32:18.426Z,3.45
2022-10-28T01:35:01.311Z,4.82
2022-10-28T01:37:38.455Z,5.00
2022-10-28T01:40:20.415Z,5.03
2022-10-28T01:42:56.079Z,5.47
2022-10-28T01:45:28.760Z,5.22
2022-10-28T01:48:01.696Z,6.07
2022-10-28T01:50:39.652Z,5.75
2022-10-28T01:53:18.491Z,5.25
2022-10-28T01:55:51.640Z,6.25
2022-10-28T01:58:23.425Z,4.95
2022-10-28T02:00:51.734Z,6.43
2022-10-28T02:03:19.224Z,5.53
2022-10-28T02:05:49.019Z,6.57
2022-10-28T02:08:19.111Z,5.13
2022-10-28T02:11:01.758Z,5.32
2022-10-28T02:13:54.426Z,5.10
2022-10-28T02:16:52.087Z,5.05
2022-10-28T02:19:29.628Z,5.57
2022-10-28T02:22:13.515Z,5.53
2022-10-28T02:25:09.532Z,5.30
2022-10-28T02:27:56.566Z,5.40
2022-10-28T02:30:34.641Z,5.78
2022-10-28T02:33:04.829Z,6.85
2022-10-28T02:35:46.373Z,5.20
2022-10-28T02:38:19.478Z,5.22
2022-10-28T02:43:26.000Z,6.03
2022-10-28T02:45:58.925Z,6.00
2022-10-28T02:48:31.983Z,6.00
2022-10-28T02:51:11.426Z,5.20
2022-10-28T02:54:00.263Z,5.63
2022-10-28T02:56:32.110Z,5.32
2022-10-28T02:58:59.496Z,4.80
2022-10-28T03:01:26.972Z,5.07
2022-10-28T03:03:54.788Z,5.10
2022-10-28T03:06:22.292Z,5.03
2022-10-28T03:08:49.605Z,4.10
2022-10-28T03:11:17.111Z,4.32
2022-10-28T03:13:44.327Z,4.20
2022-10-28T03:16:11.719Z,5.70
2022-10-28T03:18:39.248Z,6.70
2022-10-28T03:21:06.732Z,7.05
2022-10-28T03:23:34.054Z,7.28
2022-10-28T03:26:01.781Z,6.35
2022-10-28T03:28:28.991Z,6.80
2022-10-28T03:30:56.519Z,6.05
2022-10-28T03:33:23.746Z,6.22
2022-10-28T03:35:51.140Z,6.70
2022-10-28T03:38:18.548Z,6.47
2022-10-28T03:40:50.585Z,6.65
2022-10-28T03:43:18.239Z,8.32
2022-10-28T03:45:45.562Z,7.95
2022-10-28T03:48:12.899Z,6.90
2022-10-28T03:50:40.686Z,5.25
2022-10-28T03:53:08.194Z,5.45
2022-10-28T03:55:36.030Z,5.45
2022-10-28T03:58:03.708Z,6.60
2022-10-28T04:00:31.486Z,5.50
2022-10-28T04:02:58.899Z,6.70
2022-10-28T04:05:27.120Z,7.25
2022-10-28T04:07:54.294Z,8.00
2022-10-28T04:10:21.799Z,6.97
2022-10-28T04:12:49.175Z,8.10
2022-10-28T04:15:17.038Z,6.15
2022-10-28T04:17:44.314Z,6.55
2022-10-28T04:20:11.980Z,7.43
2022-10-28T04:22:39.289Z,6.80
2022-10-28T04:25:07.129Z,6.22
2022-10-28T04:27:34.476Z,6.65
2022-10-28T04:30:02.299Z,4.50
2022-10-28T04:32:29.938Z,5.53
2022-10-28T04:34:57.436Z,4.63
2022-10-28T04:37:24.831Z,4.55
2022-10-28T04:39:52.475Z,6.60
2022-10-28T04:42:19.889Z,5.70
2022-10-28T04:44:47.228Z,7.30
2022-10-28T04:47:14.663Z,7.93
2022-10-28T04:49:42.368Z,9.10
2022-10-28T04:52:13.394Z,10.88
2022-10-28T04:54:43.013Z,10.95
2022-10-28T04:57:10.747Z,11.23
2022-10-28T04:59:38.373Z,10.88
2022-10-28T05:02:05.891Z,11.65
2022-10-28T05:04:33.426Z,10.77
2022-10-28T05:07:00.859Z,9.80
2022-10-28T05:09:28.384Z,9.63
2022-10-28T05:11:55.877Z,10.18
2022-10-28T05:14:23.520Z,9.18
2022-10-28T05:16:51.024Z,10.65
2022-10-28T05:19:18.395Z,9.27
2022-10-28T05:21:45.808Z,9.20
2022-10-28T05:24:13.394Z,9.68
2022-10-28T05:26:40.824Z,9.20
2022-10-28T05:29:08.260Z,7.93
2022-10-28T05:31:35.738Z,8.13
2022-10-28T05:34:03.096Z,7.75
2022-10-28T05:36:30.439Z,8.63
2022-10-28T05:38:58.296Z,8.68
2022-10-28T05:41:25.621Z,9.00
2022-10-28T05:43:53.576Z,8.55
2022-10-28T05:46:22.344Z,8.75
2022-10-28T05:48:49.839Z,8.07
2022-10-28T05:51:17.240Z,9.00
2022-10-28T05:53:44.741Z,9.57
2022-10-28T05:56:12.182Z,9.40
2022-10-28T05:58:39.827Z,10.90
2022-10-28T06:01:08.622Z,10.10
2022-10-28T06:03:36.399Z,9.48
2022-10-28T06:06:03.881Z,10.43
2022-10-28T06:08:31.536Z,11.30
2022-10-28T06:10:57.661Z,11.15
2022-10-28T06:13:25.239Z,10.35
2022-10-28T06:15:54.345Z,9.93
2022-10-28T06:18:22.771Z,11.35
2022-10-28T06:20:52.420Z,10.80
2022-10-28T06:23:20.058Z,10.02
2022-10-28T06:25:48.218Z,10.23
2022-10-28T06:28:15.586Z,11.48
2022-10-28T06:30:43.017Z,10.95
2022-10-28T06:33:10.196Z,11.65
2022-10-28T06:35:37.367Z,10.77
2022-10-28T06:38:07.211Z,11.70
2022-10-28T06:40:36.983Z,11.20
2022-10-28T06:43:06.247Z,9.88
2022-10-28T06:45:34.401Z,10.82
2022-10-28T06:48:05.602Z,11.20
2022-10-28T06:50:35.109Z,11.20
2022-10-28T06:53:02.869Z,10.57
2022-10-28T06:55:32.728Z,10.05
2022-10-28T06:58:01.714Z,10.77
2022-10-28T07:03:04.443Z,11.25
2022-10-28T07:05:32.006Z,9.48
2022-10-28T07:07:59.420Z,9.43
2022-10-28T07:10:27.294Z,10.75
2022-10-28T07:12:54.911Z,10.23
2022-10-28T07:15:22.937Z,9.52
2022-10-28T07:17:58.057Z,10.43
2022-10-28T07:20:27.723Z,10.13
2022-10-28T07:23:02.275Z,10.35
2022-10-28T07:25:31.111Z,9.60
2022-10-28T07:27:58.881Z,8.50
2022-10-28T07:30:27.896Z,8.70
2022-10-28T07:32:56.155Z,10.38
2022-10-28T07:35:23.884Z,8.43
2022-10-28T07:37:52.505Z,8.65
2022-10-28T07:40:24.238Z,8.52
2022-10-28T07:42:52.041Z,9.00
2022-10-28T07:45:20.465Z,8.95
2022-10-28T07:47:47.905Z,8.98
2022-10-28T07:50:15.654Z,8.00
2022-10-28T07:52:43.334Z,7.30
2022-10-28T07:55:12.970Z,8.85
2022-10-28T07:57:40.387Z,7.10
2022-10-28T08:00:08.683Z,7.50
2022-10-28T08:02:39.477Z,7.63
2022-10-28T08:05:07.557Z,8.27
2022-10-28T08:07:38.445Z,7.65
2022-10-28T08:10:07.292Z,8.57
2022-10-28T08:12:34.838Z,9.27
2022-10-28T08:15:02.880Z,7.22
2022-10-28T08:17:30.634Z,6.82
2022-10-28T08:19:58.128Z,7.28
2022-10-28T08:22:25.726Z,6.93
2022-10-28T08:24:53.051Z,7.15
2022-10-28T08:27:20.449Z,5.60
2022-10-28T08:29:48.071Z,7.45
2022-10-28T08:32:15.542Z,6.18
2022-10-28T08:34:43.749Z,5.82
2022-10-28T08:37:11.355Z,6.57
2022-10-28T08:39:38.880Z,5.97
2022-10-28T08:42:26.857Z,6.00
2022-10-28T08:44:59.972Z,6.05
2022-10-28T08:47:39.700Z,6.50
2022-10-28T08:50:20.466Z,5.95
2022-10-28T08:53:01.390Z,7.68
2022-10-28T08:55:39.829Z,7.03
2022-10-28T08:58:26.509Z,6.38
2022-10-28T09:00:56.766Z,6.38
2022-10-28T09:03:33.269Z,7.88
2022-10-28T09:06:05.559Z,6.45
2022-10-28T09:08:45.146Z,7.38
2022-10-28T09:11:19.848Z,7.53
2022-10-28T09:13:57.469Z,6.40
2022-10-28T09:17:03.646Z,5.75
2022-10-28T09:19:39.892Z,6.18
2022-10-28T09:22:13.755Z,7.82
2022-10-28T09:25:27.370Z,7.53
2022-10-28T09:28:00.668Z,6.15
2022-10-28T09:31:00.133Z,5.68
2022-10-28T09:33:43.510Z,7.00
2022-10-28T09:36:25.050Z,7.15
2022-10-28T09:38:58.597Z,6.93
2022-10-28T09:41:31.222Z,6.90
2022-10-28T09:44:08.957Z,7.15
2022-10-28T09:46:38.183Z,6.95
2022-10-28T09:49:12.178Z,7.25
2022-10-28T09:52:00.657Z,6.75
2022-10-28T09:54:35.839Z,6.50
2022-10-28T09:57:04.190Z,5.20
2022-10-28T09:59:32.264Z,6.07
2022-10-28T10:01:59.800Z,7.05
2022-10-28T10:04:29.016Z,5.63
2022-10-28T10:07:09.573Z,7.30
2022-10-28T10:09:38.569Z,6.00
2022-10-28T10:12:10.860Z,5.97
2022-10-28T10:14:49.973Z,6.07
2022-10-28T10:17:35.973Z,5.70
2022-10-28T10:20:16.141Z,5.53
2022-10-28T10:22:45.659Z,6.57
2022-10-28T10:25:19.095Z,6.07
2022-10-28T10:27:57.514Z,6.80
2022-10-28T10:30:48.466Z,7.72
2022-10-28T10:33:39.130Z,6.38
2022-10-28T10:36:15.497Z,6.05
2022-10-28T10:38:54.490Z,5.75
2022-10-28T10:41:35.308Z,6.18
2022-10-28T10:44:23.102Z,6.00
2022-10-28T10:47:10.605Z,5.72
2022-10-28T10:49:38.231Z,5.88
2022-10-28T10:52:19.874Z,5.07
2022-10-28T10:55:06.976Z,5.15
2022-10-28T10:57:35.061Z,6.88
2022-10-28T11:00:04.178Z,6.30
2022-10-28T11:02:35.704Z,4.63
2022-10-28T11:05:06.906Z,5.00
2022-10-28T11:07:34.682Z,4.53
2022-10-28T11:10:02.963Z,4.53
2022-10-28T11:12:35.144Z,4.70
2022-10-28T11:15:25.978Z,5.47
2022-10-28T11:18:22.966Z,4.88
2022-10-28T11:24:10.538Z,4.65
2022-10-28T11:26:45.076Z,4.80
2022-10-28T11:29:15.669Z,4.55
2022-10-28T11:32:09.887Z,4.43
2022-10-28T11:35:03.045Z,5.65
2022-10-28T11:37:45.330Z,4.82
2022-10-28T11:40:32.256Z,4.15
2022-10-28T11:43:36.926Z,4.00
2022-10-28T11:46:10.976Z,5.47
2022-10-28T11:49:16.609Z,5.32
2022-10-28T11:51:58.998Z,4.30
2022-10-28T11:54:44.964Z,3.88
2022-10-28T11:57:35.880Z,4.35
2022-10-28T12:00:41.513Z,3.53
2022-10-28T12:03:23.822Z,4.18
2022-10-28T12:06:23.378Z,2.97
2022-10-28T12:11:59.158Z,3.45
2022-10-28T12:14:33.047Z,3.30
2022-10-28T12:17:12.912Z,3.50
2022-10-28T12:20:15.691Z,3.08
2022-10-28T12:22:50.404Z,4.07
2022-10-28T12:25:23.980Z,3.42
2022-10-28T12:27:57.556Z,3.67
2022-10-28T12:30:29.150Z,3.75
2022-10-28T12:33:07.069Z,2.97
2022-10-28T12:35:38.726Z,3.42
2022-10-28T12:38:27.006Z,3.03
2022-10-28T12:41:17.066Z,3.35
2022-10-28T12:44:04.667Z,3.47
2022-10-28T12:46:54.847Z,3.65
2022-10-28T12:49:35.564Z,2.92
2022-10-28T12:52:26.672Z,2.90
2022-10-28T12:54:58.361Z,4.80
2022-10-28T12:57:28.991Z,3.00
2022-10-28T13:00:12.359Z,2.63
2022-10-28T13:02:47.105Z,2.95
2022-10-28T13:05:23.477Z,2.70
2022-10-28T13:08:22.262Z,3.03
2022-10-28T13:11:28.066Z,2.75
2022-10-28T13:14:30.918Z,3.08
2022-10-28T13:17:30.297Z,3.05
2022-10-28T13:20:16.733Z,3.22
2022-10-28T13:23:18.638Z,2.42
2022-10-28T13:25:53.973Z,2.50
2022-10-28T13:28:22.830Z,3.40
2022-10-28T13:31:02.104Z,2.17
2022-10-28T13:33:31.817Z,3.15
2022-10-28T13:36:18.657Z,2.60
2022-10-28T13:39:01.785Z,3.15
2022-10-28T13:41:37.370Z,3.05
2022-10-28T13:44:10.375Z,2.83
2022-10-28T13:47:31.746Z,2.80
2022-10-28T13:50:08.371Z,2.28
2022-10-28T13:52:46.658Z,2.35
2022-10-28T13:55:41.606Z,2.80
2022-10-28T13:58:22.855Z,2.83
2022-10-28T14:00:53.334Z,3.05
2022-10-28T14:03:25.353Z,3.00
2022-10-28T14:05:59.345Z,2.58
2022-10-28T14:08:40.905Z,2.20
2022-10-28T14:11:21.732Z,3.15
2022-10-28T14:13:55.991Z,2.58
2022-10-28T14:16:33.114Z,2.58
2022-10-28T14:19:05.481Z,2.90
2022-10-28T14:22:03.093Z,3.53
2022-10-28T14:24:42.453Z,3.00
2022-10-28T14:27:11.471Z,3.35
2022-10-28T14:29:50.004Z,2.60
2022-10-28T14:32:32.626Z,2.35
2022-10-28T14:35:03.386Z,2.70
2022-10-28T14:37:53.634Z,2.80
2022-10-28T14:40:51.666Z,5.05
2022-10-28T14:43:54.160Z,2.90
2022-10-28T14:46:51.823Z,2.00
2022-10-28T14:49:35.744Z,11.80
2022-10-28T14:52:08.632Z,3.63
2022-10-28T14:54:43.401Z,3.80
2022-10-28T14:57:10.967Z,2.55
2022-10-28T14:59:41.969Z,3.00
2022-10-28T15:02:24.299Z,2.53
2022-10-28T15:05:23.419Z,2.30
2022-10-28T15:07:51.297Z,2.28
2022-10-28T15:10:31.258Z,2.53
2022-10-28T15:13:00.231Z,2.30
2022-10-28T15:15:30.559Z,2.88
2022-10-28T15:17:59.481Z,2.75
2022-10-28T15:20:35.754Z,2.60
2022-10-28T15:23:18.568Z,2.38
2022-10-28T15:25:46.317Z,3.17
2022-10-28T15:28:14.746Z,3.05
2022-10-28T15:30:46.613Z,2.40
2022-10-28T15:33:21.536Z,3.10
2022-10-28T15:35:49.153Z,3.33
2022-10-28T15:38:29.539Z,2.53
2022-10-28T15:40:57.281Z,2.42
2022-10-28T15:43:27.611Z,3.42
2022-10-28T15:46:08.524Z,3.25
2022-10-28T15:48:36.195Z,3.08
2022-10-28T15:51:18.596Z,2.90
2022-10-28T15:53:54.021Z,2.70
2022-10-28T15:56:24.798Z,3.13
2022-10-28T15:59:07.662Z,2.22
2022-10-28T16:01:35.624Z,3.10
2022-10-28T16:04:03.923Z,3.22
2022-10-28T16:06:34.595Z,2.25
2022-10-28T16:09:06.157Z,3.20
2022-10-28T16:11:36.425Z,3.42
2022-10-28T16:14:38.207Z,2.85
2022-10-28T16:17:15.343Z,2.92
2022-10-28T16:19:57.080Z,2.45
2022-10-28T16:22:27.382Z,3.55
2022-10-28T16:24:55.109Z,2.20
2022-10-28T16:27:30.170Z,2.85
2022-10-28T16:29:57.710Z,2.85
2022-10-28T16:32:28.903Z,2.47
2022-10-28T16:34:57.886Z,2.78
2022-10-28T16:37:31.594Z,2.88
2022-10-28T16:39:58.911Z,2.70
2022-10-28T16:42:26.731Z,3.20
2022-10-28T16:44:54.046Z,3.45
2022-10-28T16:47:26.616Z,4.00
2022-10-28T16:49:57.280Z,2.92
2022-10-28T16:52:27.522Z,2.83
2022-10-28T16:54:55.433Z,3.22
2022-10-28T16:59:52.085Z,2.88
2022-10-28T17:02:26.541Z,2.97
2022-10-28T17:04:54.553Z,2.55
2022-10-28T17:07:22.191Z,2.60
2022-10-28T17:09:49.481Z,2.45
2022-10-28T17:12:19.642Z,3.22
2022-10-28T17:14:47.432Z,2.88
2022-10-28T17:17:15.859Z,2.72
2022-10-28T17:19:45.490Z,2.65
2022-10-28T17:22:13.337Z,4.28
2022-10-28T17:24:40.685Z,3.95
2022-10-28T17:27:08.259Z,3.70
2022-10-28T17:29:36.024Z,2.97
2022-10-28T17:32:03.689Z,2.80
2022-10-28T17:34:31.321Z,3.10
2022-10-28T17:36:58.717Z,3.03
2022-10-28T17:39:26.664Z,2.97
2022-10-28T17:41:54.351Z,3.00
2022-10-28T17:44:22.045Z,2.92
2022-10-28T17:46:49.886Z,3.17
2022-10-28T17:49:18.181Z,3.50
2022-10-28T17:51:45.973Z,4.22
2022-10-28T17:54:13.560Z,2.78
2022-10-28T17:56:42.273Z,3.40
2022-10-28T17:59:09.887Z,3.10
2022-10-28T18:01:37.412Z,3.22
2022-10-28T18:04:06.013Z,2.92
2022-10-28T18:06:33.500Z,2.92
2022-10-28T18:09:01.242Z,3.30
2022-10-28T18:11:31.250Z,3.28
2022-10-28T18:13:58.778Z,3.33
2022-10-28T18:16:29.614Z,3.47
2022-10-28T18:18:57.052Z,3.42
2022-10-28T18:21:24.547Z,4.47
2022-10-28T18:23:53.158Z,3.00
2022-10-28T18:26:21.122Z,4.50
2022-10-28T18:28:49.114Z,3.53
2022-10-28T18:31:18.995Z,3.53
2022-10-28T18:33:47.270Z,3.53
2022-10-28T18:36:20.594Z,3.45
2022-10-28T18:38:49.046Z,3.38
2022-10-28T18:41:19.623Z,2.40
2022-10-28T18:43:47.537Z,3.78
2022-10-28T18:46:16.135Z,3.88
2022-10-28T18:48:43.777Z,3.70
2022-10-28T18:51:12.901Z,2.88
2022-10-28T18:53:42.589Z,3.13
2022-10-28T18:56:16.214Z,2.83
2022-10-28T18:58:44.015Z,3.63
2022-10-28T19:01:16.647Z,3.05
2022-10-28T19:03:44.581Z,2.95
2022-10-28T19:06:16.816Z,3.28
2022-10-28T19:08:44.524Z,3.60
2022-10-28T19:11:13.473Z,2.72
2022-10-28T19:13:42.100Z,3.65
2022-10-28T19:16:09.956Z,3.50
2022-10-28T19:18:38.239Z,3.42
2022-10-28T19:21:15.280Z,2.95
2022-10-28T19:23:43.671Z,2.70
2022-10-28T19:26:11.918Z,2.78
2022-10-28T19:28:45.225Z,2.40
2022-10-28T19:31:20.882Z,3.20
2022-10-28T19:33:48.895Z,4.05
2022-10-28T19:36:18.832Z,3.65
2022-10-28T19:38:47.797Z,4.50
2022-10-28T19:41:17.619Z,3.17
2022-10-28T19:43:45.579Z,4.00
2022-10-28T19:46:18.719Z,3.10
2022-10-28T19:48:48.401Z,3.85
2022-10-28T19:51:19.659Z,3.58
2022-10-28T19:53:48.278Z,3.38
2022-10-28T19:56:18.945Z,3.03
2022-10-28T19:58:49.507Z,3.55
2022-10-28T20:01:17.851Z,3.95
2022-10-28T20:03:49.238Z,3.55
2022-10-28T20:06:18.433Z,3.45
2022-10-28T20:08:46.725Z,3.38
2022-10-28T20:11:20.005Z,3.72
2022-10-28T20:14:11.475Z,3.95
2022-10-28T20:16:42.572Z,3.42
2022-10-28T20:19:10.477Z,3.60
2022-10-28T20:21:38.473Z,2.90
2022-10-28T20:24:06.910Z,3.60
2022-10-28T20:26:36.563Z,2.58
2022-10-28T20:29:06.576Z,3.15
2022-10-28T20:31:34.149Z,2.78
2022-10-28T20:34:03.781Z,3.83
2022-10-28T20:36:51.152Z,3.30
2022-10-28T20:39:22.966Z,3.08
2022-10-28T20:41:51.211Z,3.65
2022-10-28T20:44:18.580Z,3.60
2022-10-28T20:46:47.762Z,3.53
2022-10-28T20:49:15.495Z,2.83
2022-10-28T20:51:43.134Z,4.10
2022-10-28T20:54:10.563Z,3.03
2022-10-28T20:56:40.253Z,2.88
2022-10-28T20:59:08.143Z,3.55
2022-10-28T21:01:40.203Z,3.30
2022-10-28T21:04:09.950Z,3.70
2022-10-28T21:06:38.286Z,4.00
2022-10-28T21:09:06.024Z,3.20
2022-10-28T21:11:33.750Z,4.13
2022-10-28T21:14:01.873Z,4.18
2022-10-28T21:16:30.006Z,3.55
2022-10-28T21:18:59.162Z,2.58
2022-10-28T21:21:27.877Z,3.25
2022-10-28T21:23:55.462Z,3.35
2022-10-28T21:26:23.027Z,2.90
2022-10-28T21:28:52.262Z,2.60
2022-10-28T21:31:20.866Z,2.53
2022-10-28T21:36:19.326Z,3.58
2022-10-28T21:38:46.887Z,3.55
2022-10-28T21:41:19.213Z,3.33
2022-10-28T21:43:49.423Z,3.42
2022-10-28T21:46:21.399Z,3.35
2022-10-28T21:48:48.910Z,3.67
2022-10-28T21:51:17.066Z,2.63
2022-10-28T21:53:44.957Z,3.30
2022-10-28T21:56:17.123Z,3.58
2022-10-28T21:58:47.156Z,3.67
2022-10-28T22:01:21.420Z,2.90
2022-10-28T22:03:49.810Z,3.53
2022-10-28T22:06:17.300Z,3.67
2022-10-28T22:08:44.866Z,3.10
2022-10-28T22:11:15.118Z,3.53
2022-10-28T22:13:42.720Z,2.75
2022-10-28T22:16:16.397Z,3.47
2022-10-28T22:18:45.151Z,2.70
2022-10-28T22:21:18.446Z,3.42
2022-10-28T22:23:46.450Z,2.85
2022-10-28T22:26:17.383Z,3.70
2022-10-28T22:28:45.101Z,4.32
2022-10-28T22:31:15.467Z,3.78
2022-10-28T22:33:43.140Z,3.47
2022-10-28T22:36:16.422Z,3.63
2022-10-28T22:38:44.225Z,4.60
2022-10-28T22:41:20.062Z,3.45
2022-10-28T22:43:58.888Z,2.97
2022-10-28T22:46:29.664Z,2.65
2022-10-28T22:48:57.218Z,4.30
2022-10-28T22:51:24.811Z,3.60
2022-10-28T22:53:52.084Z,4.25
2022-10-28T22:56:22.492Z,4.78
2022-10-28T22:58:55.339Z,3.30
2022-10-28T23:01:24.542Z,3.45
2022-10-28T23:03:53.184Z,3.40
2022-10-28T23:06:23.719Z,2.90
2022-10-28T23:08:51.345Z,3.97
2022-10-28T23:11:20.667Z,3.83
2022-10-28T23:13:52.728Z,3.33
2022-10-28T23:16:21.186Z,3.33
2022-10-28T23:18:48.894Z,3.33
2022-10-28T23:21:19.659Z,2.85
2022-10-28T23:23:51.167Z,3.30
2022-10-28T23:26:21.725Z,3.17
2022-10-28T23:28:54.382Z,3.38
2022-10-28T23:31:23.191Z,3.60
2022-10-28T23:33:50.818Z,3.17
2022-10-28T23:36:18.290Z,3.80
2022-10-28T23:38:46.106Z,2.30
2022-10-28T23:41:18.613Z,4.38
2022-10-28T23:43:48.569Z,3.17
2022-10-28T23:46:16.196Z,3.22
2022-10-28T23:48:43.923Z,3.30
2022-10-28T23:51:11.430Z,3.67
2022-10-28T23:53:39.179Z,3.30
2022-10-28T23:56:07.123Z,2.85
2022-10-28T23:58:34.861Z,3.90
